createdAt,value
2023-04-12T10:19:50.360Z,17.76
2023-04-12T10:20:50.328Z,11.27
2023-04-12T10:21:50.318Z,13.75
2023-04-12T10:22:50.282Z,15.56
2023-04-12T10:23:50.274Z,19.40
2023-04-12T10:24:50.269Z,27.52
2023-04-12T10:44:28.694Z,39.37
2023-04-12T10:45:28.607Z,40.23
2023-04-12T10:46:28.662Z,43.79
2023-04-12T10:47:28.707Z,48.85
2023-04-12T10:48:28.884Z,54.39
2023-04-12T10:49:28.522Z,51.34
2023-04-12T10:50:28.532Z,49.14
2023-04-12T10:51:28.631Z,48.57
2023-04-12T10:52:28.510Z,60.33
2023-04-12T10:53:28.489Z,60.42
2023-04-12T10:54:28.452Z,57.93
2023-04-12T10:55:28.424Z,55.47
2023-04-12T10:56:30.133Z,49.35
2023-04-12T10:57:28.437Z,58.25
2023-04-12T10:58:28.455Z,52.92
2023-04-12T10:59:37.585Z,47.85
2023-04-12T11:01:37.677Z,47.37
2023-04-12T11:02:34.943Z,58.40
2023-04-12T11:03:34.852Z,71.42
2023-04-12T11:04:34.861Z,71.58
2023-04-12T11:05:34.752Z,80.58
2023-04-12T11:06:34.633Z,78.57
2023-04-12T11:07:34.613Z,80.87
2023-04-12T11:08:34.617Z,76.37
2023-04-12T11:09:34.599Z,81.25
2023-04-12T11:10:34.583Z,83.49
2023-04-12T11:11:34.565Z,85.12
2023-04-12T11:12:34.602Z,86.27
2023-04-12T11:13:34.607Z,88.66
2023-04-12T11:14:34.601Z,88.76
2023-04-12T11:15:34.528Z,88.85
2023-04-12T11:16:34.582Z,92.58
2023-04-12T11:52:43.419Z,0.00
2023-04-12T11:53:43.370Z,0.00
2023-04-12T11:54:43.338Z,0.00
2023-04-12T11:55:43.380Z,0.00
2023-04-12T11:56:43.299Z,0.00
2023-04-12T11:57:43.288Z,0.00
2023-04-12T11:58:43.283Z,0.00
2023-04-12T12:04:21.106Z,0.00
2023-04-12T12:05:21.072Z,0.00
2023-04-12T12:06:21.015Z,0.00
2023-04-12T12:07:21.491Z,0.00
2023-04-12T12:08:20.873Z,6.68
2023-04-12T12:09:20.834Z,11.36
2023-04-12T12:10:36.667Z,8.78
2023-04-12T12:11:20.783Z,25.77
2023-04-12T12:12:20.789Z,28.14
2023-04-12T12:13:20.763Z,27.28
2023-04-12T12:14:20.744Z,20.52
2023-04-12T12:15:20.744Z,20.89
2023-04-12T12:16:20.756Z,21.94
2023-04-12T12:17:20.909Z,33.01
2023-04-12T12:18:20.684Z,43.72
2023-04-12T12:19:20.675Z,47.54
2023-04-12T12:20:20.684Z,54.99
2023-04-12T12:21:20.683Z,50.21
2023-04-12T12:22:20.633Z,52.22
2023-04-12T12:23:20.617Z,52.12
2023-04-12T12:24:20.635Z,60.97
2023-04-12T12:25:20.600Z,54.99
2023-04-12T12:26:20.602Z,60.68
2023-04-12T12:27:20.622Z,61.54
2023-04-12T12:37:41.576Z,68.22
2023-04-12T12:40:23.013Z,70.79
2023-04-12T12:41:22.998Z,72.13
2023-04-12T12:42:22.978Z,77.47
2023-04-12T12:43:22.930Z,72.99
2023-04-12T12:44:22.936Z,62.05
2023-04-12T12:45:22.914Z,65.90
2023-04-12T12:46:22.917Z,68.67
2023-04-12T12:47:22.959Z,83.33
2023-04-12T12:48:22.905Z,93.26
2023-04-12T12:49:22.841Z,89.82
2023-04-12T12:50:24.717Z,98.75
2023-04-12T12:51:22.807Z,99.99
2023-04-12T12:52:22.780Z,99.99
2023-04-12T12:53:24.381Z,99.99
2023-04-12T12:54:38.758Z,99.99
2023-04-12T12:55:22.754Z,99.99
2023-04-12T12:56:22.731Z,99.99
2023-04-12T12:57:22.720Z,99.99
2023-04-12T12:58:22.690Z,99.99
2023-04-12T12:59:24.707Z,99.99
2023-04-12T13:00:22.637Z,99.99
2023-04-12T13:01:22.652Z,99.99
2023-04-12T13:02:22.736Z,99.99
2023-04-12T13:03:22.972Z,99.99
2023-04-12T13:04:22.600Z,99.99
2023-04-12T13:05:22.722Z,99.99
2023-04-12T13:06:22.545Z,99.99
2023-04-12T13:07:22.538Z,99.99
2023-04-12T13:08:22.508Z,99.99
2023-04-12T13:09:22.482Z,99.99
2023-04-12T13:10:22.482Z,99.99
2023-04-12T13:11:22.473Z,99.99
2023-04-12T13:42:09.285Z,99.99
2023-04-12T13:43:09.278Z,99.99
2023-04-12T13:44:09.232Z,99.99
2023-04-12T13:45:09.239Z,99.99
2023-04-12T13:46:09.308Z,99.99
2023-04-12T13:47:09.203Z,99.99
2023-04-12T13:48:09.225Z,99.99
2023-04-12T13:49:09.170Z,99.99
2023-04-12T13:50:09.131Z,99.99
2023-04-12T13:51:09.143Z,99.99
2023-04-12T13:52:09.087Z,99.99
2023-04-12T13:53:09.095Z,99.99
2023-04-12T13:54:09.052Z,99.99
2023-04-12T13:55:09.062Z,99.99
2023-04-12T13:56:09.053Z,99.99
2023-04-12T13:57:09.029Z,99.99
2023-04-12T13:58:09.065Z,99.99
2023-04-12T13:59:08.999Z,99.99
2023-04-12T14:00:08.984Z,99.99
2023-04-12T14:01:08.986Z,99.99
2023-04-12T14:02:08.961Z,99.99
2023-04-12T14:03:08.985Z,99.99
2023-04-12T14:04:08.991Z,99.99
2023-04-12T14:05:08.972Z,99.99
2023-04-12T14:06:08.865Z,99.99
2023-04-12T14:07:08.898Z,99.99
2023-04-12T14:08:08.855Z,99.99
2023-04-12T14:09:08.831Z,99.99
2023-04-12T14:10:08.826Z,99.99
2023-04-12T14:11:08.812Z,99.99
2023-04-12T14:12:08.804Z,99.99
2023-04-12T14:13:08.819Z,99.99
2023-04-12T14:14:08.772Z,99.99
2023-04-12T14:15:08.777Z,99.99
2023-04-12T14:16:08.746Z,99.99
2023-04-12T14:21:40.717Z,99.99
2023-04-12T14:22:40.721Z,99.99
2023-04-12T14:23:40.688Z,99.99
2023-04-12T14:24:40.660Z,99.99
2023-04-12T14:25:40.639Z,99.99
2023-04-12T14:26:40.631Z,99.99
2023-04-12T14:27:40.628Z,99.99
2023-04-12T14:28:40.604Z,99.99
2023-04-12T14:29:40.609Z,99.99
2023-04-12T14:30:40.595Z,99.99
2023-04-12T14:31:40.665Z,99.99
2023-04-12T14:32:40.600Z,99.99
2023-04-12T14:33:40.523Z,99.99
2023-04-12T14:34:49.905Z,99.99
2023-04-12T14:35:40.521Z,99.99
2023-04-12T14:36:40.520Z,99.99
2023-04-12T14:37:40.511Z,99.99
2023-04-12T14:38:40.467Z,99.99
2023-04-12T14:39:40.469Z,99.99
2023-04-12T14:40:40.444Z,99.99
2023-04-12T14:41:40.430Z,99.99
2023-04-12T14:42:40.433Z,99.99
2023-04-12T14:43:40.417Z,99.99
2023-04-12T14:44:40.402Z,99.99
2023-04-12T15:09:30.608Z,99.99
2023-04-12T15:10:30.597Z,99.99
2023-04-12T15:11:30.569Z,99.99
2023-04-12T15:12:30.577Z,99.99
2023-04-12T15:16:29.513Z,99.99
2023-04-12T15:19:43.240Z,99.99
2023-04-12T15:20:43.225Z,99.99
